Holualoa, HI (96725)

12:15 AM HST on February 14, 2016 (GMT -1000)
Kona Vistas | | Change Station
CLOSE
Current Station
Personal Weather Station
Location: Kailua-Kona, HI
Elevation: 541 ft
Nearby Weather Stations

Elev 541 ft 19.61 °N, 155.96 °W | Updated 5 seconds ago

Scattered Clouds
Scattered Clouds
69.8 °F
Feels Like 69.8 °F
N
1.3
Wind Variable Wind from South
Gusts 4.9 mph

Today
High -- | Low -- °F
--% Chance of Precip.
Yesterday
High -- | Low -- °F
Precip. -- in
Pressure 30.04 in
Visibility 9.0 miles
Clouds Scattered Clouds 2200 ft
Dew Point 58 °F
Humidity 67%
Rainfall 0.00 in
Snow Depth Not available.
6:53 AM 6:22 PM
Waxing Crescent, 40% visible
METAR PHKO 140953Z AUTO 00000KT 9SM SCT022 24/19 A3004 RMK AO2 SLP173 T02440194 402830206 TSNO
Pressure 30.04 in
Visibility 9.0 miles
Clouds Scattered Clouds 2200 ft
Dew Point 58 °F
Humidity 67%
Rainfall 0.00 in
Snow Depth Not available.
6:53 AM 6:22 PM
Waxing Crescent, 40% visible
METAR PHKO 140953Z AUTO 00000KT 9SM SCT022 24/19 A3004 RMK AO2 SLP173 T02440194 402830206 TSNO

10-Day Weather Forecast

Almanac

Astronomy

Feb. 14, 2016 Rise Set
Actual Time
Civil Twilight
Nautical Twilight
Astronomical Twilight
Moon
Length of Visible Light
Length of Day
Tomorrow will be .
, % of the Moon is Illuminated

Today's Extremes

State Highs State Lows

Community

WunderPhotos

Upload Photos

1,892,765 photos uploaded!

WunderBlog® & News

Nearby

Air Quality

  Air Quality AQ Index Pollutant
Not available.

Snow Depth

Station Depth Elevation

Earthquake Activity

City Distance Mag. Time & Date
Minimum magnitude displayed is 2.5.

Coastal Water Temperatures

Place Temperature

Stations

Nearby Weather Stations

Station Location Temp. Windchill Dew Point Humidity Wind Precip. Elev Updated Type
                   

Watches & Warnings

There are currently no watches in effect.